createdAt,value
2018-01-26T00:01:13.141Z,20.10
2018-01-26T00:03:40.726Z,19.87
2018-01-26T00:06:08.258Z,18.93
2018-01-26T00:08:35.773Z,19.33
2018-01-26T00:11:03.318Z,19.27
2018-01-26T00:13:30.866Z,19.50
2018-01-26T00:15:58.426Z,20.03
2018-01-26T00:18:25.952Z,19.77
2018-01-26T00:20:53.474Z,19.83
2018-01-26T00:23:21.059Z,19.60
2018-01-26T00:25:48.615Z,20.93
2018-01-26T00:28:16.172Z,19.87
2018-01-26T00:33:46.360Z,20.30
2018-01-26T00:36:13.867Z,20.60
2018-01-26T00:38:41.381Z,19.80
2018-01-26T00:41:08.904Z,19.53
2018-01-26T00:43:36.430Z,18.67
2018-01-26T00:46:03.944Z,19.27
2018-01-26T00:48:31.465Z,18.87
2018-01-26T00:50:58.991Z,19.00
2018-01-26T00:53:26.508Z,18.63
2018-01-26T00:55:54.038Z,19.10
2018-01-26T00:58:21.569Z,18.60
2018-01-26T01:00:49.089Z,17.93
2018-01-26T01:03:16.619Z,19.43
2018-01-26T01:05:44.129Z,18.00
2018-01-26T01:08:11.641Z,17.07
2018-01-26T01:10:42.816Z,18.00
2018-01-26T01:13:10.344Z,17.73
2018-01-26T01:15:38.762Z,16.03
2018-01-26T01:18:06.277Z,15.70
2018-01-26T01:20:33.802Z,15.53
2018-01-26T01:23:01.318Z,13.47
2018-01-26T01:25:28.853Z,15.37
2018-01-26T01:27:56.383Z,16.20
2018-01-26T01:30:23.902Z,15.60
2018-01-26T01:32:51.424Z,14.80
2018-01-26T01:35:18.928Z,13.30
2018-01-26T01:37:46.454Z,13.93
2018-01-26T01:40:13.968Z,13.77
2018-01-26T01:42:41.481Z,15.07
2018-01-26T01:45:08.998Z,14.70
2018-01-26T01:47:36.517Z,17.43
2018-01-26T01:50:04.050Z,17.80
2018-01-26T01:52:31.561Z,16.97
2018-01-26T01:54:59.077Z,20.37
2018-01-26T01:57:26.593Z,20.87
2018-01-26T01:59:54.109Z,20.30
2018-01-26T02:02:21.631Z,20.23
2018-01-26T02:04:49.140Z,20.67
2018-01-26T02:07:16.659Z,21.33
2018-01-26T02:09:44.183Z,21.13
2018-01-26T02:12:11.701Z,21.10
2018-01-26T02:14:39.228Z,21.93
2018-01-26T02:17:06.737Z,21.43
2018-01-26T02:19:34.257Z,22.17
2018-01-26T02:22:01.767Z,21.33
2018-01-26T02:24:46.752Z,21.27
2018-01-26T02:27:14.270Z,21.10
2018-01-26T02:29:41.820Z,21.03
2018-01-26T02:32:09.339Z,20.77
2018-01-26T02:34:36.845Z,20.33
2018-01-26T02:37:04.369Z,19.97
2018-01-26T02:39:31.881Z,20.57
2018-01-26T02:41:59.444Z,20.97
2018-01-26T02:44:26.953Z,19.83
2018-01-26T02:46:54.483Z,19.13
2018-01-26T02:49:22.014Z,21.90
2018-01-26T02:51:49.534Z,19.67
2018-01-26T02:54:17.057Z,19.93
2018-01-26T02:56:44.581Z,20.07
2018-01-26T02:59:12.105Z,20.13
2018-01-26T03:01:39.625Z,20.87
2018-01-26T03:04:07.143Z,19.87
2018-01-26T03:06:34.661Z,21.87
2018-01-26T03:09:02.178Z,20.13
2018-01-26T03:11:29.950Z,20.70
2018-01-26T03:13:57.474Z,20.13
2018-01-26T03:16:24.985Z,20.73
2018-01-26T03:18:52.525Z,21.33
2018-01-26T03:21:20.046Z,21.27
2018-01-26T03:23:47.574Z,19.50
2018-01-26T03:26:15.088Z,19.77
2018-01-26T03:28:42.622Z,19.23
2018-01-26T03:31:10.155Z,18.10
2018-01-26T03:33:37.674Z,19.50
2018-01-26T03:36:05.210Z,18.90
2018-01-26T03:38:32.740Z,19.83
2018-01-26T03:41:00.264Z,20.67
2018-01-26T03:43:27.786Z,19.80
2018-01-26T03:45:55.298Z,20.17
2018-01-26T03:48:22.814Z,19.40
2018-01-26T03:50:50.334Z,18.33
2018-01-26T03:53:17.853Z,18.43
2018-01-26T03:55:45.373Z,18.60
2018-01-26T03:58:12.893Z,18.23
2018-01-26T04:00:40.406Z,17.60
2018-01-26T04:03:07.927Z,19.43
2018-01-26T04:05:35.472Z,18.93
2018-01-26T04:08:02.997Z,19.60
2018-01-26T04:10:30.513Z,18.23
2018-01-26T04:12:58.037Z,17.97
2018-01-26T04:15:25.557Z,18.53
2018-01-26T04:17:53.068Z,18.70
2018-01-26T04:20:20.588Z,18.50
2018-01-26T04:22:48.122Z,19.07
2018-01-26T04:25:15.652Z,18.27
2018-01-26T04:27:43.169Z,18.83
2018-01-26T04:30:10.697Z,21.67
2018-01-26T04:32:38.217Z,24.17
2018-01-26T04:35:05.735Z,23.93
2018-01-26T04:37:33.258Z,24.37
2018-01-26T04:40:00.788Z,25.30
2018-01-26T04:42:28.300Z,24.37
2018-01-26T04:44:55.816Z,24.80
2018-01-26T04:47:23.333Z,24.83
2018-01-26T04:49:50.853Z,25.77
2018-01-26T04:52:18.380Z,25.17
2018-01-26T04:54:45.892Z,25.40
2018-01-26T04:57:13.421Z,25.93
2018-01-26T04:59:40.942Z,24.90
2018-01-26T05:02:08.473Z,25.40
2018-01-26T05:04:36.004Z,25.23
2018-01-26T05:07:03.518Z,25.77
2018-01-26T05:09:31.046Z,25.10
2018-01-26T05:11:58.568Z,25.50
2018-01-26T05:14:26.094Z,25.60
2018-01-26T05:16:53.613Z,26.40
2018-01-26T05:19:21.133Z,26.00
2018-01-26T05:21:48.682Z,27.20
2018-01-26T05:24:16.209Z,27.40
2018-01-26T05:26:43.732Z,28.07
2018-01-26T05:29:11.264Z,27.03
2018-01-26T05:31:38.793Z,28.17
2018-01-26T05:34:06.315Z,29.77
2018-01-26T05:36:33.840Z,29.67
2018-01-26T05:39:01.370Z,29.67
2018-01-26T05:41:28.889Z,29.87
2018-01-26T05:43:56.405Z,30.93
2018-01-26T05:46:23.933Z,31.63
2018-01-26T05:48:51.455Z,30.43
2018-01-26T05:51:18.973Z,31.93
2018-01-26T05:53:46.495Z,31.57
2018-01-26T05:56:14.019Z,32.03
2018-01-26T05:58:41.552Z,31.67
2018-01-26T06:01:09.068Z,31.70
2018-01-26T06:03:36.590Z,32.53
2018-01-26T06:06:04.143Z,31.80
2018-01-26T06:08:31.666Z,33.37
2018-01-26T06:10:59.205Z,32.40
2018-01-26T06:13:26.721Z,34.10
2018-01-26T06:15:54.256Z,34.47
2018-01-26T06:18:21.781Z,35.23
2018-01-26T06:20:49.304Z,33.07
2018-01-26T06:23:16.826Z,34.77
2018-01-26T06:25:44.354Z,37.53
2018-01-26T06:28:11.933Z,35.43
2018-01-26T06:30:39.438Z,35.20
2018-01-26T06:33:06.961Z,34.17
2018-01-26T06:35:34.477Z,35.73
2018-01-26T06:38:01.994Z,35.10
2018-01-26T06:40:29.512Z,34.63
2018-01-26T06:42:57.033Z,35.63
2018-01-26T06:45:24.562Z,36.07
2018-01-26T06:47:52.104Z,36.07
2018-01-26T06:50:19.619Z,34.70
2018-01-26T06:52:47.133Z,35.70
2018-01-26T06:55:14.667Z,35.10
2018-01-26T06:57:42.189Z,36.90
2018-01-26T07:00:09.713Z,36.90
2018-01-26T07:02:37.232Z,36.73
2018-01-26T07:05:04.749Z,35.47
2018-01-26T07:07:32.265Z,34.77
2018-01-26T07:09:59.790Z,37.00
2018-01-26T07:12:27.321Z,34.97
2018-01-26T07:14:54.848Z,36.47
2018-01-26T07:17:22.412Z,35.27
2018-01-26T07:19:49.945Z,35.70
2018-01-26T07:22:17.475Z,34.97
2018-01-26T07:24:45.006Z,35.67
2018-01-26T07:27:12.540Z,36.33
2018-01-26T07:29:40.065Z,35.87
2018-01-26T07:32:07.585Z,36.23
2018-01-26T07:34:35.117Z,37.07
2018-01-26T07:37:02.662Z,36.97
2018-01-26T07:39:30.190Z,36.50
2018-01-26T07:41:57.798Z,38.47
2018-01-26T07:44:25.388Z,37.43
2018-01-26T07:46:52.944Z,37.53
2018-01-26T07:49:20.449Z,36.13
2018-01-26T07:51:48.006Z,36.50
2018-01-26T07:54:15.566Z,36.50
2018-01-26T07:56:43.085Z,38.97
2018-01-26T07:59:10.609Z,39.00
2018-01-26T08:01:38.133Z,39.20
2018-01-26T08:04:05.681Z,39.23
2018-01-26T08:06:33.208Z,39.07
2018-01-26T08:09:00.739Z,38.23
2018-01-26T08:11:28.269Z,40.27
2018-01-26T08:13:55.784Z,40.30
2018-01-26T08:16:23.302Z,40.00
2018-01-26T08:18:50.822Z,40.17
2018-01-26T08:21:18.455Z,39.17
2018-01-26T08:23:45.981Z,39.83
2018-01-26T08:26:13.538Z,39.40
2018-01-26T08:28:41.116Z,37.20
2018-01-26T08:31:08.622Z,38.87
2018-01-26T08:33:36.148Z,37.43
2018-01-26T08:36:03.681Z,36.90
2018-01-26T08:38:31.199Z,38.43
2018-01-26T08:40:58.726Z,38.93
2018-01-26T08:43:26.253Z,37.77
2018-01-26T08:45:53.774Z,38.03
2018-01-26T08:48:21.298Z,38.17
2018-01-26T08:50:48.823Z,38.83
2018-01-26T08:53:16.356Z,38.33
2018-01-26T08:55:43.876Z,39.33
2018-01-26T08:58:11.405Z,38.70
2018-01-26T09:00:38.927Z,38.13
2018-01-26T09:03:06.446Z,37.97
2018-01-26T09:05:34.164Z,39.10
2018-01-26T09:08:01.748Z,38.70
2018-01-26T09:10:29.268Z,39.40
2018-01-26T09:12:56.788Z,38.87
2018-01-26T09:15:24.340Z,39.37
2018-01-26T09:17:51.861Z,40.03
2018-01-26T09:20:19.385Z,39.80
2018-01-26T09:22:46.910Z,40.60
2018-01-26T09:25:14.440Z,41.57
2018-01-26T09:27:41.971Z,41.03
2018-01-26T09:30:09.491Z,41.93
2018-01-26T09:32:37.026Z,41.73
2018-01-26T09:35:04.563Z,43.07
2018-01-26T09:37:32.090Z,41.90
2018-01-26T09:39:59.649Z,41.40
2018-01-26T09:42:27.185Z,41.10
2018-01-26T09:44:55.673Z,41.43
2018-01-26T09:47:23.189Z,39.10
2018-01-26T09:49:50.717Z,40.70
2018-01-26T09:52:18.231Z,40.77
2018-01-26T09:54:45.753Z,42.03
2018-01-26T09:57:13.269Z,40.63
2018-01-26T09:59:40.788Z,40.57
2018-01-26T10:02:08.307Z,41.17
2018-01-26T10:04:35.828Z,43.47
2018-01-26T10:07:03.357Z,43.80
2018-01-26T10:09:30.892Z,44.53
2018-01-26T10:11:58.413Z,43.83
2018-01-26T10:14:25.940Z,41.93
2018-01-26T10:16:53.466Z,44.93
2018-01-26T10:19:20.989Z,44.83
2018-01-26T10:21:48.519Z,43.90
2018-01-26T10:24:16.044Z,44.63
2018-01-26T10:26:43.557Z,44.77
2018-01-26T10:29:11.093Z,44.17
2018-01-26T10:31:38.619Z,44.80
2018-01-26T10:34:06.150Z,45.77
2018-01-26T10:36:33.672Z,44.40
2018-01-26T10:39:01.200Z,45.23
2018-01-26T10:41:28.721Z,44.20
2018-01-26T10:43:56.257Z,43.20
2018-01-26T10:46:23.775Z,41.83
2018-01-26T10:48:51.301Z,44.80
2018-01-26T10:51:18.836Z,45.03
2018-01-26T10:53:46.386Z,41.77
2018-01-26T10:56:13.913Z,42.60
2018-01-26T10:58:41.429Z,41.87
2018-01-26T11:01:08.958Z,40.97
2018-01-26T11:03:36.492Z,41.43
2018-01-26T11:06:04.017Z,41.20
2018-01-26T11:08:31.540Z,41.47
2018-01-26T11:10:59.057Z,40.77
2018-01-26T11:13:26.569Z,41.23
2018-01-26T11:15:54.095Z,40.03
2018-01-26T11:18:21.610Z,40.63
2018-01-26T11:20:49.136Z,41.77
2018-01-26T11:23:16.652Z,41.40
2018-01-26T11:25:44.170Z,39.40
2018-01-26T11:28:11.687Z,39.80
2018-01-26T11:30:39.204Z,39.53
2018-01-26T11:33:06.727Z,40.97
2018-01-26T11:35:34.260Z,39.40
2018-01-26T11:38:01.786Z,39.67
2018-01-26T11:40:29.313Z,38.40
2018-01-26T11:42:56.834Z,39.70
2018-01-26T11:45:24.363Z,38.30
2018-01-26T11:47:51.885Z,37.30
2018-01-26T11:50:19.400Z,38.13
2018-01-26T11:52:46.935Z,36.10
2018-01-26T11:55:14.454Z,34.90
2018-01-26T11:57:41.980Z,34.77
2018-01-26T12:00:09.493Z,34.23
2018-01-26T12:02:37.026Z,32.83
2018-01-26T12:05:04.584Z,34.03
2018-01-26T12:07:32.101Z,33.27
2018-01-26T12:09:59.617Z,32.57
2018-01-26T12:12:27.132Z,30.90
2018-01-26T12:14:54.653Z,31.33
2018-01-26T12:17:22.179Z,22.27
2018-01-26T12:19:49.711Z,18.40
2018-01-26T12:22:17.244Z,15.43
2018-01-26T12:24:44.768Z,12.73
2018-01-26T12:27:12.292Z,11.70
2018-01-26T12:29:39.806Z,11.00
2018-01-26T12:32:07.336Z,10.53
2018-01-26T12:34:34.965Z,10.83
2018-01-26T12:37:02.500Z,8.63
2018-01-26T12:39:30.026Z,8.10
2018-01-26T12:41:57.541Z,7.20
2018-01-26T12:44:25.058Z,7.73
2018-01-26T12:46:52.566Z,6.87
2018-01-26T12:49:20.070Z,6.70
2018-01-26T12:51:47.585Z,6.60
2018-01-26T12:54:15.089Z,6.63
2018-01-26T12:56:42.600Z,6.70
2018-01-26T12:59:10.134Z,6.87
2018-01-26T13:01:37.645Z,6.40
2018-01-26T13:04:05.339Z,7.20
2018-01-26T13:06:32.865Z,7.13
2018-01-26T13:09:00.382Z,7.60
2018-01-26T13:11:27.901Z,7.87
2018-01-26T13:13:55.422Z,7.20
2018-01-26T13:16:22.921Z,6.77
2018-01-26T13:18:50.433Z,6.57
2018-01-26T13:21:17.966Z,6.43
2018-01-26T13:23:45.495Z,6.03
2018-01-26T13:26:13.017Z,6.03
2018-01-26T13:28:40.526Z,6.00
2018-01-26T13:31:08.047Z,6.67
2018-01-26T13:33:35.566Z,6.60
2018-01-26T13:36:03.170Z,6.17
2018-01-26T13:38:30.698Z,6.30
2018-01-26T13:40:58.213Z,5.87
2018-01-26T13:43:25.731Z,6.10
2018-01-26T13:45:53.243Z,5.70
2018-01-26T13:48:20.760Z,4.57
2018-01-26T13:50:49.144Z,4.60
2018-01-26T13:53:16.662Z,4.77
2018-01-26T13:55:44.175Z,4.83
2018-01-26T13:58:11.688Z,4.73
2018-01-26T14:00:39.208Z,5.03
2018-01-26T14:03:06.733Z,4.90
2018-01-26T14:05:34.246Z,4.63
2018-01-26T14:08:01.778Z,5.60
2018-01-26T14:10:29.281Z,6.07
2018-01-26T14:12:56.834Z,5.93
2018-01-26T14:15:24.368Z,6.03
2018-01-26T14:17:51.891Z,6.40
2018-01-26T14:20:19.432Z,6.10
2018-01-26T14:22:46.944Z,6.37
2018-01-26T14:25:14.477Z,6.33
2018-01-26T14:27:41.996Z,4.77
2018-01-26T14:30:09.515Z,4.10
2018-01-26T14:32:37.020Z,4.17
2018-01-26T14:35:04.571Z,4.07
2018-01-26T14:37:32.094Z,4.57
2018-01-26T14:39:59.740Z,5.33
2018-01-26T14:42:27.245Z,5.30
2018-01-26T14:44:54.775Z,5.57
2018-01-26T14:47:22.403Z,4.90
2018-01-26T14:49:49.937Z,4.70
2018-01-26T14:52:17.448Z,5.10
2018-01-26T14:54:45.319Z,5.33
2018-01-26T14:57:12.841Z,4.73
2018-01-26T14:59:40.400Z,5.57
2018-01-26T15:02:07.909Z,6.37
2018-01-26T15:04:35.417Z,4.97
2018-01-26T15:07:02.967Z,5.07
2018-01-26T15:09:30.472Z,5.53
2018-01-26T15:11:58.100Z,5.70
2018-01-26T15:14:25.641Z,5.50
2018-01-26T15:16:53.156Z,5.60
2018-01-26T15:19:20.757Z,5.20
2018-01-26T15:21:48.285Z,6.10
2018-01-26T15:24:15.910Z,6.50
2018-01-26T15:26:43.424Z,6.50
2018-01-26T15:29:10.941Z,6.70
2018-01-26T15:31:38.454Z,6.80
2018-01-26T15:34:05.960Z,7.13
2018-01-26T15:36:33.475Z,7.30
2018-01-26T15:39:00.989Z,8.17
2018-01-26T15:41:28.527Z,7.63
2018-01-26T15:43:56.078Z,8.20
2018-01-26T15:46:23.604Z,7.83
2018-01-26T15:48:51.141Z,8.73
2018-01-26T15:51:18.667Z,8.33
2018-01-26T15:53:46.221Z,7.93
2018-01-26T15:56:13.769Z,8.60
2018-01-26T15:58:41.293Z,7.77
2018-01-26T16:01:08.821Z,8.83
2018-01-26T16:03:36.340Z,7.97
2018-01-26T16:06:03.858Z,9.07
2018-01-26T16:08:31.382Z,8.60
2018-01-26T16:10:58.935Z,8.97
2018-01-26T16:13:26.492Z,9.40
2018-01-26T16:16:03.534Z,9.60
2018-01-26T16:18:31.061Z,9.00
2018-01-26T16:21:03.362Z,9.83
2018-01-26T16:23:30.918Z,9.57
2018-01-26T16:25:58.440Z,10.13
2018-01-26T16:28:25.962Z,10.83
2018-01-26T16:30:53.494Z,10.73
2018-01-26T16:33:21.029Z,10.97
2018-01-26T16:35:48.561Z,11.03
2018-01-26T16:38:16.121Z,11.53
2018-01-26T16:40:43.639Z,12.33
2018-01-26T16:43:11.197Z,11.80
2018-01-26T16:45:38.712Z,12.10
2018-01-26T16:48:06.265Z,11.70
2018-01-26T16:50:33.840Z,12.00
2018-01-26T16:53:01.485Z,11.90
2018-01-26T16:55:29.001Z,12.20
2018-01-26T16:57:56.641Z,13.33
2018-01-26T17:00:24.157Z,14.30
2018-01-26T17:02:51.684Z,12.03
2018-01-26T17:05:19.243Z,12.40
2018-01-26T17:07:46.845Z,11.90
2018-01-26T17:10:14.379Z,12.43
2018-01-26T17:12:42.018Z,13.20
2018-01-26T17:15:09.629Z,12.93
2018-01-26T17:17:37.187Z,13.10
2018-01-26T17:20:04.749Z,12.80
2018-01-26T17:22:32.265Z,13.33
2018-01-26T17:24:59.789Z,13.53
2018-01-26T17:27:27.325Z,15.65
2018-01-26T17:29:54.850Z,13.50
2018-01-26T17:32:22.381Z,13.03
2018-01-26T17:34:49.892Z,13.90
2018-01-26T17:37:17.430Z,12.60
2018-01-26T17:39:44.961Z,12.80
2018-01-26T17:42:12.480Z,13.70
2018-01-26T17:44:40.029Z,12.87
2018-01-26T17:47:07.539Z,12.83
2018-01-26T17:49:35.155Z,12.00
2018-01-26T17:52:02.673Z,13.23
2018-01-26T17:54:30.202Z,12.83
2018-01-26T17:56:57.740Z,13.23
2018-01-26T17:59:25.262Z,12.57
2018-01-26T18:01:52.794Z,12.27
2018-01-26T18:04:20.320Z,12.00
2018-01-26T18:06:47.846Z,13.67
2018-01-26T18:09:15.404Z,12.60
2018-01-26T18:11:42.929Z,13.67
2018-01-26T18:14:10.454Z,13.60
2018-01-26T18:16:37.977Z,13.17
2018-01-26T18:19:05.504Z,13.30
2018-01-26T18:21:33.033Z,12.40
2018-01-26T18:24:00.585Z,13.10
2018-01-26T18:26:28.118Z,12.77
2018-01-26T18:28:55.635Z,13.23
2018-01-26T18:31:23.156Z,13.30
2018-01-26T18:33:50.683Z,13.97
2018-01-26T18:36:18.219Z,13.33
2018-01-26T18:38:45.748Z,14.30
2018-01-26T18:41:13.274Z,13.60
2018-01-26T18:43:40.819Z,13.47
2018-01-26T18:46:08.359Z,13.33
2018-01-26T18:48:35.880Z,14.50
2018-01-26T18:51:03.392Z,14.30
2018-01-26T18:53:30.913Z,13.57
2018-01-26T18:55:58.484Z,14.80
2018-01-26T18:58:26.119Z,18.03
2018-01-26T19:00:53.668Z,14.87
2018-01-26T19:03:21.178Z,15.57
2018-01-26T19:05:48.697Z,15.10
2018-01-26T19:08:16.221Z,15.00
2018-01-26T19:10:43.752Z,14.47
2018-01-26T19:13:11.282Z,14.67
2018-01-26T19:15:38.829Z,15.43
2018-01-26T19:18:06.358Z,15.43
2018-01-26T19:20:33.885Z,15.37
2018-01-26T19:23:01.404Z,15.23
2018-01-26T19:25:28.943Z,15.53
2018-01-26T19:27:56.468Z,15.50
2018-01-26T19:30:24.017Z,15.10
2018-01-26T19:32:51.544Z,16.17
2018-01-26T19:35:19.072Z,15.50
2018-01-26T19:37:46.605Z,15.67
2018-01-26T19:40:14.235Z,16.20
2018-01-26T19:42:41.766Z,16.30
2018-01-26T19:45:09.358Z,15.97
2018-01-26T19:47:36.899Z,16.87
2018-01-26T19:50:04.477Z,17.50
2018-01-26T19:52:32.013Z,17.23
2018-01-26T19:54:59.544Z,16.87
2018-01-26T19:57:27.073Z,16.53
2018-01-26T19:59:54.705Z,17.37
2018-01-26T20:02:22.281Z,17.27
2018-01-26T20:05:07.554Z,17.77
2018-01-26T20:07:40.748Z,21.47
2018-01-26T20:10:08.326Z,19.70
2018-01-26T20:12:41.548Z,18.33
2018-01-26T20:15:09.081Z,17.73
2018-01-26T20:17:36.712Z,19.23
2018-01-26T20:20:04.244Z,17.87
2018-01-26T20:22:31.857Z,18.83
2018-01-26T20:24:59.535Z,17.43
2018-01-26T20:27:27.064Z,18.43
2018-01-26T20:29:54.590Z,18.80
2018-01-26T20:32:22.123Z,17.50
2018-01-26T20:34:49.645Z,19.23
2018-01-26T20:37:17.165Z,19.37
2018-01-26T20:39:44.742Z,19.47
2018-01-26T20:42:12.523Z,19.77
2018-01-26T20:44:40.097Z,19.67
2018-01-26T20:47:07.612Z,19.10
2018-01-26T20:49:35.205Z,18.30
2018-01-26T20:52:02.757Z,18.80
2018-01-26T20:54:30.325Z,19.53
2018-01-26T20:56:57.852Z,19.77
2018-01-26T20:59:25.429Z,19.93
2018-01-26T21:01:53.030Z,18.63
2018-01-26T21:04:20.916Z,21.27
2018-01-26T21:06:48.644Z,19.03
2018-01-26T21:09:16.181Z,19.70
2018-01-26T21:11:43.749Z,20.63
2018-01-26T21:14:11.281Z,20.43
2018-01-26T21:16:38.819Z,21.30
2018-01-26T21:19:06.341Z,19.70
2018-01-26T21:21:33.891Z,20.27
2018-01-26T21:24:01.410Z,20.87
2018-01-26T21:26:29.005Z,21.77
2018-01-26T21:28:56.760Z,20.77
2018-01-26T21:31:24.544Z,21.20
2018-01-26T21:33:52.132Z,22.33
2018-01-26T21:36:19.668Z,21.00
2018-01-26T21:38:47.193Z,21.83
2018-01-26T21:41:14.718Z,22.07
2018-01-26T21:43:42.284Z,22.80
2018-01-26T21:46:09.928Z,22.10
2018-01-26T21:48:37.698Z,21.87
2018-01-26T21:51:05.331Z,21.83
2018-01-26T21:53:33.007Z,21.97
2018-01-26T21:56:00.553Z,22.53
2018-01-26T21:58:28.085Z,22.10
2018-01-26T22:00:55.604Z,23.87
2018-01-26T22:03:23.138Z,24.07
2018-01-26T22:05:50.949Z,23.10
2018-01-26T22:08:18.468Z,23.60
2018-01-26T22:10:46.117Z,23.13
2018-01-26T22:13:13.665Z,24.00
2018-01-26T22:15:41.205Z,24.57
2018-01-26T22:18:08.726Z,25.80
2018-01-26T22:20:36.257Z,24.03
2018-01-26T22:23:03.779Z,24.97
2018-01-26T22:25:31.303Z,24.67
2018-01-26T22:27:58.817Z,25.27
2018-01-26T22:30:26.357Z,24.10
2018-01-26T22:32:53.884Z,25.83
2018-01-26T22:35:21.517Z,25.07
2018-01-26T22:37:49.041Z,25.30
2018-01-26T22:40:16.566Z,27.40
2018-01-26T22:42:44.090Z,25.77
2018-01-26T22:45:11.616Z,26.03
2018-01-26T22:47:39.210Z,27.77
2018-01-26T22:50:06.728Z,27.17
2018-01-26T22:52:34.401Z,26.90
2018-01-26T22:55:01.950Z,25.83
2018-01-26T22:57:29.476Z,26.63
2018-01-26T22:59:57.002Z,26.67
2018-01-26T23:02:24.531Z,27.10
2018-01-26T23:04:52.162Z,25.57
2018-01-26T23:07:19.696Z,27.07
2018-01-26T23:09:47.246Z,27.57
2018-01-26T23:12:14.777Z,28.47
2018-01-26T23:14:42.302Z,27.03
2018-01-26T23:17:09.827Z,26.27
2018-01-26T23:19:37.418Z,27.63
2018-01-26T23:22:04.956Z,28.63
2018-01-26T23:24:32.482Z,27.87
2018-01-26T23:27:00.068Z,29.33
2018-01-26T23:29:27.623Z,27.53
2018-01-26T23:31:55.404Z,29.33
2018-01-26T23:34:22.929Z,27.50
2018-01-26T23:36:50.507Z,28.73
2018-01-26T23:39:18.043Z,29.13
2018-01-26T23:41:45.561Z,27.90
2018-01-26T23:44:13.107Z,28.40
2018-01-26T23:46:40.630Z,27.67
2018-01-26T23:49:08.157Z,28.67
2018-01-26T23:51:35.771Z,28.50
2018-01-26T23:54:03.436Z,27.33
2018-01-26T23:56:31.004Z,27.80
2018-01-26T23:58:58.516Z,26.47
